Hovedside
METAR-TAF:

METAR-TAF

Lufthavner :

Røros lufthavn

Røros, Norge

breddegrad: 62-35N, lengdegrad: 011-21E, høyde over havet: 626 m

Gjeldene værobservasjon

Denne rapporten ble laget for 12 minutter siden, klokken 15:50 UTC
Vind 9 kt fra Sør-sørøst, skiftende mellom Øst-sørøst og Sør-sørvest
Temperatur 22°C
Luftfuktighet 53%
Trykk 1022 hPa
Sikt 10 km eller mer
ingen skyer under 1500 m og ingen bygeskyer

METAR: ENRO 071550Z 15009KT 120V200 CAVOK 22/12 Q1022

Tid: 18:02 (16:02 UTC)

Varsel

Denne rapporten ble laget for 5 timer og 2 minutter siden, klokken 11:00 UTC
Varsel gyldig fra 07. klokken 12 UTC til 07. klokken 18 UTC
Vind 8 kt fra Sør-sørvest
Sikt 10 km eller mer
Spredte skyer i en høyde av 4500 ft

TAF: ENRO 071100Z 0712/0718 20008KT 9999 SCT045

Værobservasjoner og værvarsel for over 4000 flyplasser (METAR- og TAF-rapporter).

Tilgjengelige stasjoner er representert av de røde og gule prikkene på kartet.

Hold musepekeren over prikken for å se navnet på stasjonen.

Klikk så for å se værobservasjoner og -varsler.

For å forandre kartet kan du klikke på den grønne knappen med svart kryss for å zoome inn, på den grønne knappen med strek for å zoome ut, eller på de grønne pilene for å se tilstøtende kart.


METAR-TAF: